Time;durP1;ratioP1;P1;durP2;ratioP2;P2;SDS_P1;SDS_P2;PMS_P1;PMS_P2;Temp;Humidity;BMP_temperature;BMP_pressure;BME280_temperature;BME280_humidity;BME280_pressure;Samples;Min_cycle;Max_cycle;Signal;HPM_P1;HPM_P2
2022/07/09 00:54:36;;;;;;;2.95;2.15;;;;;;;;;;6229768;22;20192;-91
2022/07/09 00:57:16;;;;;;;3.28;2.45;;;;;;;;;;6245718;22;20222;-91
2022/07/09 00:59:50;;;;;;;3.28;2.00;;;;;;;;;;6246296;22;20183;-91
2022/07/09 01:02:20;;;;;;;3.08;2.38;;;;;;;;;;6246212;23;20161;-91
2022/07/09 01:11:17;;;;;;;3.80;2.30;;;;;;;;;;6195129;22;20173;-90
2022/07/09 01:29:24;;;;;;;2.60;2.40;;;;;;;;;;6153146;23;20158;-90
2022/07/09 01:32:37;;;;;;;2.50;2.30;;;;;;;;;;6153257;23;20201;-90
2022/07/09 01:41:58;;;;;;;2.78;2.42;;;;;;;;;;6094157;23;20199;-90
2022/07/09 01:50:46;;;;;;;3.05;2.38;;;;;;;;;;6152451;23;20169;-90
2022/07/09 01:53:20;;;;;;;3.00;2.30;;;;;;;;;;6214990;23;20193;-90
2022/07/09 01:55:59;;;;;;;3.38;2.50;;;;;;;;;;6215345;23;20173;-90
2022/07/09 02:01:45;;;;;;;3.70;2.47;;;;;;;;;;6191006;23;20189;-90
2022/07/09 02:13:32;;;;;;;2.28;2.03;;;;;;;;;;6101139;22;20214;-87
2022/07/09 02:16:00;;;;;;;3.60;2.15;;;;;;;;;;6274727;22;20171;-87
2022/07/09 02:18:27;;;;;;;4.18;2.75;;;;;;;;;;6275723;22;20218;-88
2022/07/09 02:20:55;;;;;;;2.63;2.22;;;;;;;;;;6276683;22;20184;-88
2022/07/09 02:23:23;;;;;;;3.15;2.30;;;;;;;;;;6275911;22;20187;-88
2022/07/09 02:25:50;;;;;;;3.00;2.40;;;;;;;;;;6275987;22;20178;-87
2022/07/09 02:28:18;;;;;;;2.85;2.10;;;;;;;;;;6275955;22;20179;-87
2022/07/09 02:30:47;;;;;;;4.00;2.30;;;;;;;;;;6276278;22;20171;-87
2022/07/09 02:33:14;;;;;;;2.50;2.30;;;;;;;;;;6276570;22;20179;-87
2022/07/09 02:35:42;;;;;;;2.95;2.00;;;;;;;;;;6275655;22;20198;-87
2022/07/09 02:38:10;;;;;;;2.88;2.40;;;;;;;;;;6276108;22;20176;-87
2022/07/09 02:40:37;;;;;;;2.40;2.20;;;;;;;;;;6275908;22;20191;-87
2022/07/09 02:43:04;;;;;;;2.67;2.17;;;;;;;;;;6275823;22;20179;-87
2022/07/09 02:45:32;;;;;;;2.30;2.10;;;;;;;;;;6275790;22;20172;-87
2022/07/09 02:48:00;;;;;;;2.70;2.13;;;;;;;;;;6275635;22;20251;-87
2022/07/09 02:50:28;;;;;;;4.80;2.20;;;;;;;;;;6275767;22;20243;-87
2022/07/09 02:52:55;;;;;;;3.25;2.03;;;;;;;;;;6275448;22;20179;-87
2022/07/09 02:55:23;;;;;;;2.55;2.15;;;;;;;;;;6275895;22;20237;-87
2022/07/09 02:57:50;;;;;;;2.85;2.50;;;;;;;;;;6275412;22;20178;-87
2022/07/09 03:00:17;;;;;;;2.50;2.10;;;;;;;;;;6275457;22;20214;-87
2022/07/09 03:02:47;;;;;;;2.42;2.10;;;;;;;;;;6275657;22;20176;-87
2022/07/09 03:05:16;;;;;;;2.35;2.15;;;;;;;;;;6275540;22;20257;-88
2022/07/09 03:07:44;;;;;;;3.80;2.28;;;;;;;;;;6275207;22;20250;-87
2022/07/09 03:10:12;;;;;;;2.80;2.33;;;;;;;;;;6275947;22;20254;-87
2022/07/09 03:12:40;;;;;;;3.35;2.10;;;;;;;;;;6276276;22;20164;-87
2022/07/09 03:15:08;;;;;;;2.40;2.20;;;;;;;;;;6275276;22;20226;-87
2022/07/09 03:17:38;;;;;;;3.65;2.10;;;;;;;;;;6275474;22;20172;-87
2022/07/09 03:20:06;;;;;;;2.80;2.08;;;;;;;;;;6275845;22;20176;-87
2022/07/09 03:22:35;;;;;;;3.15;2.30;;;;;;;;;;6275376;22;20187;-87
2022/07/09 03:25:02;;;;;;;2.70;2.30;;;;;;;;;;6275239;22;20243;-87
2022/07/09 03:27:30;;;;;;;2.72;2.17;;;;;;;;;;6275025;22;20176;-89
2022/07/09 03:29:57;;;;;;;2.55;2.28;;;;;;;;;;6275264;22;20171;-86
2022/07/09 03:32:24;;;;;;;2.80;2.58;;;;;;;;;;6275617;22;20226;-87
2022/07/09 03:34:54;;;;;;;2.75;2.35;;;;;;;;;;6275451;22;20192;-86
2022/07/09 03:37:22;;;;;;;2.35;2.15;;;;;;;;;;6275976;22;20241;-85
2022/07/09 03:39:51;;;;;;;3.10;2.40;;;;;;;;;;6275251;22;20198;-87
2022/07/09 03:42:18;;;;;;;3.60;2.30;;;;;;;;;;6275626;22;20191;-88
2022/07/09 03:44:45;;;;;;;2.30;2.10;;;;;;;;;;6275487;22;20215;-87
2022/07/09 03:47:15;;;;;;;2.80;2.20;;;;;;;;;;6275090;22;20202;-87
2022/07/09 03:49:42;;;;;;;2.30;2.10;;;;;;;;;;6275348;22;20171;-88
2022/07/09 03:52:14;;;;;;;2.97;2.20;;;;;;;;;;6275284;22;20237;-87
2022/07/09 03:54:41;;;;;;;2.50;2.10;;;;;;;;;;6274940;22;20192;-87
2022/07/09 03:57:10;;;;;;;3.50;2.10;;;;;;;;;;6274814;22;20191;-87
2022/07/09 03:59:38;;;;;;;2.10;1.90;;;;;;;;;;6275368;22;20237;-87
2022/07/09 04:02:06;;;;;;;2.58;2.28;;;;;;;;;;6275292;22;20184;-87
2022/07/09 04:04:33;;;;;;;3.70;2.28;;;;;;;;;;6275317;22;20192;-88
2022/07/09 04:07:00;;;;;;;3.25;2.42;;;;;;;;;;6275145;22;20199;-87
2022/07/09 04:09:28;;;;;;;3.45;2.30;;;;;;;;;;6274987;22;20624;-87
2022/07/09 04:11:55;;;;;;;2.95;2.20;;;;;;;;;;6275219;22;20228;-88
2022/07/09 04:14:24;;;;;;;2.60;1.95;;;;;;;;;;6274982;22;20200;-87
2022/07/09 04:16:51;;;;;;;2.30;2.10;;;;;;;;;;6275049;22;20225;-88
2022/07/09 04:19:18;;;;;;;2.47;2.10;;;;;;;;;;6275077;22;20175;-87
2022/07/09 04:21:51;;;;;;;3.55;2.40;;;;;;;;;;6275665;22;20216;-87
2022/07/09 04:24:35;;;;;;;2.42;2.10;;;;;;;;;;6275464;22;20246;-87
2022/07/09 04:27:02;;;;;;;2.38;2.10;;;;;;;;;;6275384;22;20171;-83
2022/07/09 04:29:31;;;;;;;2.78;2.20;;;;;;;;;;6277489;22;20176;-84
2022/07/09 04:31:58;;;;;;;2.25;2.00;;;;;;;;;;6278189;22;20175;-84
2022/07/09 04:34:25;;;;;;;2.30;2.00;;;;;;;;;;6277199;22;20243;-86
2022/07/09 04:36:53;;;;;;;3.42;2.58;;;;;;;;;;6276599;22;20217;-86
2022/07/09 04:39:22;;;;;;;3.40;2.40;;;;;;;;;;6276900;22;20180;-86
2022/07/09 04:41:50;;;;;;;2.72;2.10;;;;;;;;;;6276716;22;20214;-86
2022/07/09 04:44:17;;;;;;;2.50;2.30;;;;;;;;;;6277036;22;20215;-86
2022/07/09 04:46:46;;;;;;;4.35;2.15;;;;;;;;;;6276602;22;20243;-87
2022/07/09 04:49:13;;;;;;;3.47;2.40;;;;;;;;;;6276791;22;20199;-87
2022/07/09 04:51:40;;;;;;;2.85;2.22;;;;;;;;;;6277471;22;20229;-87
2022/07/09 04:54:08;;;;;;;2.65;2.08;;;;;;;;;;6277146;22;20199;-84
2022/07/09 04:56:35;;;;;;;3.30;2.30;;;;;;;;;;6277164;22;20184;-84
2022/07/09 04:59:03;;;;;;;2.53;2.33;;;;;;;;;;6278356;22;20174;-84
2022/07/09 05:01:30;;;;;;;2.33;2.17;;;;;;;;;;6277642;22;20187;-85
2022/07/09 05:03:59;;;;;;;4.10;2.20;;;;;;;;;;6277685;22;20192;-84
2022/07/09 05:06:26;;;;;;;2.30;2.10;;;;;;;;;;6278015;22;20168;-84
2022/07/09 05:08:54;;;;;;;3.53;2.35;;;;;;;;;;6277807;22;20179;-84
2022/07/09 05:11:24;;;;;;;3.83;3.22;;;;;;;;;;6278114;22;20168;-84
2022/07/09 05:13:51;;;;;;;4.13;2.70;;;;;;;;;;6276889;22;20223;-84
2022/07/09 05:16:18;;;;;;;2.38;2.03;;;;;;;;;;6277271;22;20172;-84
2022/07/09 05:18:45;;;;;;;5.63;2.55;;;;;;;;;;6277237;22;20167;-84
2022/07/09 05:23:56;;;;;;;2.95;2.58;;;;;;;;;;6257277;22;20278;-84
2022/07/09 05:26:23;;;;;;;3.97;2.55;;;;;;;;;;6276881;22;20178;-84
2022/07/09 05:28:50;;;;;;;2.72;2.30;;;;;;;;;;6276246;22;20168;-85
2022/07/09 05:31:18;;;;;;;3.95;2.22;;;;;;;;;;6276108;22;20231;-85
2022/07/09 05:33:45;;;;;;;3.22;2.08;;;;;;;;;;6276281;22;20192;-85
2022/07/09 05:36:28;;;;;;;2.47;2.28;;;;;;;;;;6275548;22;20664;-85
2022/07/09 05:38:55;;;;;;;2.83;2.10;;;;;;;;;;6275735;22;20279;-85
2022/07/09 05:41:24;;;;;;;3.83;2.08;;;;;;;;;;6275548;22;20210;-85
2022/07/09 05:44:03;;;;;;;2.83;2.10;;;;;;;;;;6274840;22;20215;-87
2022/07/09 05:49:19;;;;;;;3.08;2.15;;;;;;;;;;6269819;22;20172;-87
2022/07/09 05:51:56;;;;;;;2.85;2.10;;;;;;;;;;6275598;22;20164;-86
2022/07/09 05:54:26;;;;;;;3.67;2.38;;;;;;;;;;6275504;22;20191;-87
2022/07/09 05:57:01;;;;;;;3.13;2.38;;;;;;;;;;6275189;22;20225;-86
2022/07/09 05:59:31;;;;;;;2.83;2.30;;;;;;;;;;6274610;22;20189;-87
2022/07/09 06:01:58;;;;;;;4.82;2.50;;;;;;;;;;6275404;22;20266;-86
2022/07/09 06:04:32;;;;;;;3.72;2.05;;;;;;;;;;6275396;22;20200;-86
2022/07/09 06:07:04;;;;;;;3.85;2.13;;;;;;;;;;6275251;22;20172;-86
2022/07/09 06:09:31;;;;;;;3.38;2.05;;;;;;;;;;6275056;22;20159;-86
2022/07/09 06:12:01;;;;;;;3.35;2.13;;;;;;;;;;6275191;22;20655;-86
2022/07/09 06:14:28;;;;;;;2.20;2.00;;;;;;;;;;6274575;22;20200;-87
2022/07/09 06:16:56;;;;;;;4.65;2.05;;;;;;;;;;6275201;22;20168;-86
2022/07/09 06:19:23;;;;;;;3.55;2.10;;;;;;;;;;6274899;22;20247;-87
2022/07/09 06:21:53;;;;;;;3.90;2.38;;;;;;;;;;6274687;22;20188;-86
2022/07/09 06:24:26;;;;;;;3.60;2.30;;;;;;;;;;6276258;22;20199;-87
2022/07/09 06:26:54;;;;;;;3.55;2.28;;;;;;;;;;6274974;22;20168;-86
2022/07/09 06:29:24;;;;;;;4.13;2.50;;;;;;;;;;6274890;22;20172;-86
2022/07/09 06:31:51;;;;;;;9.23;3.92;;;;;;;;;;6275963;22;20171;-86
2022/07/09 06:34:18;;;;;;;30.15;22.25;;;;;;;;;;6275702;22;20192;-84
2022/07/09 06:36:46;;;;;;;32.90;29.45;;;;;;;;;;6275428;22;20222;-85
2022/07/09 06:42:08;;;;;;;37.85;33.78;;;;;;;;;;6275080;22;20268;-88
2022/07/09 06:44:35;;;;;;;31.27;27.92;;;;;;;;;;6275475;22;20195;-85
2022/07/09 06:47:04;;;;;;;187.82;81.60;;;;;;;;;;6274994;22;20192;-85
2022/07/09 06:49:33;;;;;;;100.90;56.30;;;;;;;;;;6275670;22;20175;-86
2022/07/09 06:52:00;;;;;;;74.05;47.67;;;;;;;;;;6274523;22;20175;-84
2022/07/09 06:54:28;;;;;;;41.40;29.45;;;;;;;;;;6275083;22;20216;-85
2022/07/09 06:56:56;;;;;;;35.13;25.75;;;;;;;;;;6274954;22;20171;-89
2022/07/09 06:59:51;;;;;;;31.38;26.02;;;;;;;;;;6277806;22;20175;-90
2022/07/09 07:02:38;;;;;;;31.88;25.95;;;;;;;;;;6266036;22;20211;-89
2022/07/09 07:05:14;;;;;;;24.60;20.25;;;;;;;;;;6278122;22;20192;-89
2022/07/09 07:07:41;;;;;;;24.25;18.77;;;;;;;;;;6277431;22;20186;-89
2022/07/09 07:10:12;;;;;;;20.73;16.23;;;;;;;;;;6276728;22;20178;-89
2022/07/09 07:12:40;;;;;;;9.43;7.97;;;;;;;;;;6275350;22;20214;-87
2022/07/09 07:15:51;;;;;;;;;;;;;;;;;;;;;
2022/07/09 07:21:31;;;;;;;7.03;5.53;;;;;;;;;;6181385;23;20172;-88
2022/07/09 08:35:44;;;;;;;3.05;1.58;;;;;;;;;;6309071;22;20194;-91
2022/07/09 08:38:27;;;;;;;2.53;1.50;;;;;;;;;;6268364;22;20167;-89
2022/07/09 08:41:04;;;;;;;2.75;1.70;;;;;;;;;;6307368;22;20173;-89
2022/07/09 08:43:53;;;;;;;;;;;;;;;;;;;;;
2022/07/09 08:46:42;;;;;;;3.03;1.70;;;;;;;;;;6307886;22;20147;-90
2022/07/09 08:52:12;;;;;;;1.85;1.63;;;;;;;;;;6296804;22;20177;-91
2022/07/09 08:54:54;;;;;;;2.17;1.48;;;;;;;;;;6307774;22;20647;-90
2022/07/09 08:57:42;;;;;;;2.17;1.38;;;;;;;;;;6307476;22;20171;-90
2022/07/09 09:03:33;;;;;;;1.60;1.42;;;;;;;;;;6305223;22;20245;-89
2022/07/09 09:06:07;;;;;;;2.35;1.50;;;;;;;;;;6307604;22;20191;-90
2022/07/09 09:08:37;;;;;;;2.35;1.50;;;;;;;;;;6307620;22;20167;-90
2022/07/09 09:11:18;;;;;;;;;;;;;;;;;;;;;
2022/07/09 09:13:51;;;;;;;3.08;1.40;;;;;;;;;;6307563;22;20164;-90
2022/07/09 09:16:28;;;;;;;1.40;1.30;;;;;;;;;;6307333;22;20178;-90
2022/07/09 09:18:56;;;;;;;2.20;1.40;;;;;;;;;;6307416;22;20163;-90
2022/07/09 09:21:27;;;;;;;2.00;1.33;;;;;;;;;;6307870;22;20171;-90
2022/07/09 09:26:33;;;;;;;1.98;1.30;;;;;;;;;;6243250;22;20230;-91
2022/07/09 09:31:59;;;;;;;2.40;1.70;;;;;;;;;;6153892;23;20258;-92
2022/07/09 09:34:29;;;;;;;3.10;1.52;;;;;;;;;;6234866;22;20199;-91
2022/07/09 09:40:09;;;;;;;2.63;2.25;;;;;;;;;;6218204;23;20216;-90
2022/07/09 09:42:40;;;;;;;2.13;1.52;;;;;;;;;;6246955;23;20180;-90
2022/07/09 09:45:18;;;;;;;2.30;1.50;;;;;;;;;;6246454;22;20193;-90
2022/07/09 09:47:47;;;;;;;3.17;1.70;;;;;;;;;;6245416;23;20176;-89
2022/07/09 09:50:18;;;;;;;2.97;1.85;;;;;;;;;;6245386;23;20251;-87
2022/07/09 09:52:47;;;;;;;4.30;2.58;;;;;;;;;;6245727;23;20554;-91
2022/07/09 09:55:26;;;;;;;2.15;1.95;;;;;;;;;;6245619;22;20196;-91
2022/07/09 09:57:55;;;;;;;1.65;1.48;;;;;;;;;;6245678;23;20227;-89
2022/07/09 10:00:38;;;;;;;2.70;1.20;;;;;;;;;;6246141;23;20175;-89
2022/07/09 10:03:16;;;;;;;3.28;1.88;;;;;;;;;;6245980;23;20218;-90
2022/07/09 10:05:44;;;;;;;1.83;1.73;;;;;;;;;;6245869;22;20188;-89
2022/07/09 10:08:17;;;;;;;1.92;1.45;;;;;;;;;;6245385;23;20226;-90
2022/07/09 10:10:53;;;;;;;1.50;1.40;;;;;;;;;;6244973;23;20168;-87
2022/07/09 10:13:25;;;;;;;1.50;1.33;;;;;;;;;;6245388;23;20526;-89
2022/07/09 10:15:53;;;;;;;1.92;1.75;;;;;;;;;;6245591;22;20263;-90
2022/07/09 10:18:20;;;;;;;2.10;1.52;;;;;;;;;;6245967;23;20168;-89
2022/07/09 10:20:49;;;;;;;1.60;1.40;;;;;;;;;;6245226;23;20219;-88
2022/07/09 10:23:31;;;;;;;3.17;1.80;;;;;;;;;;6245085;23;20581;-90
2022/07/09 10:29:21;;;;;;;1.65;1.40;;;;;;;;;;6188460;23;20172;-90
2022/07/09 10:32:08;;;;;;;1.70;1.52;;;;;;;;;;6245613;23;20160;-87
2022/07/09 10:34:56;;;;;;;1.38;1.20;;;;;;;;;;6245526;22;20215;-88
2022/07/09 10:37:36;;;;;;;2.92;1.33;;;;;;;;;;6245297;23;20192;-86
2022/07/09 10:40:14;;;;;;;3.17;1.60;;;;;;;;;;6246348;23;20165;-87
2022/07/09 10:42:42;;;;;;;2.72;1.90;;;;;;;;;;6245986;23;20248;-89
2022/07/09 10:45:24;;;;;;;9.73;7.43;;;;;;;;;;6246487;22;20208;-87
2022/07/09 10:47:57;;;;;;;32.03;22.55;;;;;;;;;;6245751;23;20200;-86
2022/07/09 10:50:25;;;;;;;12.70;9.18;;;;;;;;;;6246429;23;20222;-87
2022/07/09 10:52:53;;;;;;;5.82;4.60;;;;;;;;;;6244800;23;20226;-86
2022/07/09 10:55:26;;;;;;;2.20;2.00;;;;;;;;;;6245112;22;20195;-87
2022/07/09 10:57:57;;;;;;;1.20;1.10;;;;;;;;;;6244983;23;20195;-88
2022/07/09 11:00:25;;;;;;;1.42;1.20;;;;;;;;;;6245360;23;20172;-87
2022/07/09 11:02:57;;;;;;;1.55;1.42;;;;;;;;;;6244764;23;20188;-86
2022/07/09 11:05:24;;;;;;;2.08;1.20;;;;;;;;;;6245640;22;20195;-87
2022/07/09 11:08:13;;;;;;;1.50;1.40;;;;;;;;;;6244678;23;20181;-87
2022/07/09 11:10:46;;;;;;;1.77;1.20;;;;;;;;;;6239292;23;20179;-86
2022/07/09 11:13:16;;;;;;;2.10;1.10;;;;;;;;;;6245450;23;20168;-89
2022/07/09 11:15:44;;;;;;;1999.90;999.90;;;;;;;;;;6244746;22;20232;-89
2022/07/09 11:18:13;;;;;;;1166.85;443.27;;;;;;;;;;6245142;23;20177;-87
2022/07/09 11:20:43;;;;;;;438.27;181.18;;;;;;;;;;6246474;23;20175;-89
2022/07/09 11:23:15;;;;;;;129.50;54.25;;;;;;;;;;6247450;23;20192;-90
2022/07/09 11:25:45;;;;;;;33.00;15.68;;;;;;;;;;6245066;22;20734;-89
2022/07/09 11:28:20;;;;;;;11.60;6.10;;;;;;;;;;6245919;23;20175;-88
2022/07/09 11:30:47;;;;;;;5.57;3.72;;;;;;;;;;6246232;23;20172;-90
2022/07/09 11:33:17;;;;;;;2.33;1.70;;;;;;;;;;6245040;23;20172;-90
2022/07/09 11:35:45;;;;;;;3.15;1.80;;;;;;;;;;6244771;22;20192;-90
2022/07/09 11:38:13;;;;;;;2.88;1.58;;;;;;;;;;6243748;23;20172;-89
2022/07/09 11:40:43;;;;;;;2.22;1.20;;;;;;;;;;6243664;23;20179;-88
2022/07/09 11:43:16;;;;;;;1.63;1.50;;;;;;;;;;6244419;23;20258;-90
2022/07/09 11:45:53;;;;;;;1.70;1.30;;;;;;;;;;6242215;22;20196;-89
2022/07/09 11:48:25;;;;;;;2.70;1.73;;;;;;;;;;6245248;23;20164;-91
2022/07/09 11:50:52;;;;;;;1.30;1.20;;;;;;;;;;6245330;23;20175;-86
2022/07/09 11:53:23;;;;;;;2.35;1.40;;;;;;;;;;6245630;23;20164;-88
2022/07/09 11:56:00;;;;;;;1.55;1.45;;;;;;;;;;6246107;22;20250;-89
2022/07/09 11:58:31;;;;;;;1.83;1.33;;;;;;;;;;6254277;23;20168;-89
2022/07/09 12:00:59;;;;;;;1.83;1.20;;;;;;;;;;6249859;23;20164;-86
2022/07/09 12:03:32;;;;;;;1.45;1.20;;;;;;;;;;6245126;23;20189;-90
2022/07/09 12:05:59;;;;;;;1.25;1.10;;;;;;;;;;6244560;22;20246;-86
2022/07/09 12:08:30;;;;;;;1.30;1.20;;;;;;;;;;6245083;23;20172;-89
2022/07/09 12:10:58;;;;;;;1.30;1.20;;;;;;;;;;6244863;23;20225;-89
2022/07/09 12:13:25;;;;;;;1.40;1.30;;;;;;;;;;6244826;23;20168;-88
2022/07/09 12:15:53;;;;;;;1.40;1.15;;;;;;;;;;6243986;22;20242;-88
2022/07/09 12:18:20;;;;;;;1.50;1.40;;;;;;;;;;6245740;23;20227;-89
2022/07/09 12:20:49;;;;;;;1.45;1.20;;;;;;;;;;6247342;23;20203;-89
2022/07/09 12:23:17;;;;;;;1.63;1.30;;;;;;;;;;6245348;23;20258;-89
2022/07/09 12:25:44;;;;;;;1.40;1.30;;;;;;;;;;6244481;22;20246;-88
2022/07/09 12:28:11;;;;;;;1.38;1.20;;;;;;;;;;6244517;23;20211;-87
2022/07/09 12:30:39;;;;;;;1.33;1.23;;;;;;;;;;6244695;23;20180;-88
2022/07/09 12:33:06;;;;;;;1.85;1.30;;;;;;;;;;6244856;23;20168;-88
2022/07/09 12:35:34;;;;;;;1.48;1.10;;;;;;;;;;6244606;22;20189;-88
2022/07/09 12:38:03;;;;;;;1.92;1.08;;;;;;;;;;6245054;23;20177;-90
2022/07/09 12:40:30;;;;;;;1.50;1.35;;;;;;;;;;6244459;23;20173;-90
2022/07/09 12:42:57;;;;;;;1.42;1.33;;;;;;;;;;6244111;23;20176;-89
2022/07/09 12:45:25;;;;;;;1.80;1.20;;;;;;;;;;6244241;22;20680;-88
2022/07/09 12:47:52;;;;;;;1.42;1.20;;;;;;;;;;6244488;23;20199;-89
2022/07/09 12:50:21;;;;;;;2.13;1.20;;;;;;;;;;6246008;23;20169;-88
2022/07/09 12:52:50;;;;;;;1.55;1.23;;;;;;;;;;6246751;23;20173;-87
2022/07/09 12:55:18;;;;;;;1.13;1.02;;;;;;;;;;6246050;22;20219;-88
2022/07/09 12:57:46;;;;;;;1.25;1.10;;;;;;;;;;6245858;23;20176;-86
2022/07/09 13:00:14;;;;;;;1.33;1.00;;;;;;;;;;6246043;23;20194;-88
2022/07/09 13:02:44;;;;;;;1.48;1.02;;;;;;;;;;6246071;23;20173;-89
2022/07/09 13:05:14;;;;;;;1.30;1.20;;;;;;;;;;6245875;22;20197;-89
2022/07/09 13:07:41;;;;;;;1.95;1.42;;;;;;;;;;6245726;23;20173;-87
2022/07/09 13:10:09;;;;;;;1.33;1.13;;;;;;;;;;6246624;23;20176;-89
2022/07/09 13:12:38;;;;;;;1.33;1.20;;;;;;;;;;6246146;23;20169;-89
2022/07/09 13:18:22;;;;;;;1.30;1.20;;;;;;;;;;6232255;23;20178;-88
2022/07/09 13:20:50;;;;;;;1.67;1.17;;;;;;;;;;6228173;23;20215;-86
2022/07/09 13:23:17;;;;;;;1.30;1.20;;;;;;;;;;6246786;23;20172;-89
2022/07/09 13:25:45;;;;;;;1.17;1.02;;;;;;;;;;6246540;22;20197;-87
2022/07/09 13:28:18;;;;;;;1.10;1.00;;;;;;;;;;6245955;23;20184;-88
2022/07/09 13:30:48;;;;;;;1.20;1.10;;;;;;;;;;6245948;23;20169;-88
2022/07/09 13:33:16;;;;;;;1.17;1.10;;;;;;;;;;6246478;23;20173;-87
2022/07/09 13:35:47;;;;;;;1.38;1.17;;;;;;;;;;6245565;22;20189;-89
2022/07/09 13:38:15;;;;;;;1.63;1.00;;;;;;;;;;6246055;23;20196;-89
2022/07/09 13:40:42;;;;;;;1.65;1.10;;;;;;;;;;6245792;23;20176;-87
2022/07/09 13:43:12;;;;;;;1.00;1.00;;;;;;;;;;6245716;23;20173;-89
2022/07/09 13:45:41;;;;;;;1.42;1.30;;;;;;;;;;6245280;22;20188;-89
2022/07/09 13:48:08;;;;;;;1.40;1.30;;;;;;;;;;6245985;23;20173;-89
2022/07/09 13:50:36;;;;;;;1.30;1.20;;;;;;;;;;6245395;23;20199;-90
2022/07/09 13:53:03;;;;;;;2.15;1.20;;;;;;;;;;6245282;23;20175;-92
2022/07/09 13:55:31;;;;;;;1.80;1.40;;;;;;;;;;6244881;22;20185;-88
2022/07/09 13:58:01;;;;;;;1.15;1.13;;;;;;;;;;6245698;23;20172;-89
2022/07/09 14:00:28;;;;;;;1.27;1.10;;;;;;;;;;6245176;23;20226;-87
2022/07/09 14:03:03;;;;;;;1.45;1.35;;;;;;;;;;6245385;23;20222;-89
2022/07/09 14:08:14;;;;;;;2.35;1.38;;;;;;;;;;6241073;23;20196;-89
2022/07/09 14:10:42;;;;;;;1.38;1.27;;;;;;;;;;6245619;23;20172;-89
2022/07/09 14:13:09;;;;;;;1.42;1.33;;;;;;;;;;6255354;23;20173;-86
2022/07/09 14:15:42;;;;;;;1.83;1.35;;;;;;;;;;6244505;22;20227;-88
2022/07/09 14:18:11;;;;;;;1.50;1.38;;;;;;;;;;6244945;23;20663;-89
2022/07/09 14:20:41;;;;;;;1.52;1.35;;;;;;;;;;6245855;23;20173;-88
2022/07/09 14:23:13;;;;;;;1.58;1.48;;;;;;;;;;6245736;23;20173;-89
2022/07/09 14:25:40;;;;;;;1.35;1.25;;;;;;;;;;6244928;22;20200;-88
2022/07/09 14:28:08;;;;;;;1.85;1.42;;;;;;;;;;6245338;23;20168;-89
2022/07/09 14:30:38;;;;;;;1.48;1.27;;;;;;;;;;6245038;23;20180;-89
2022/07/09 14:33:06;;;;;;;1.60;1.50;;;;;;;;;;6245642;23;20513;-89
2022/07/09 14:35:38;;;;;;;1.60;1.50;;;;;;;;;;6245471;22;20185;-90
2022/07/09 14:38:06;;;;;;;1.60;1.50;;;;;;;;;;6245837;23;20204;-88
2022/07/09 14:40:35;;;;;;;1.73;1.40;;;;;;;;;;6245528;23;20199;-89
2022/07/09 14:43:03;;;;;;;2.25;1.80;;;;;;;;;;6246119;23;20180;-89
2022/07/09 14:45:39;;;;;;;1.98;1.77;;;;;;;;;;6244758;22;20246;-88
2022/07/09 14:48:08;;;;;;;2.20;2.00;;;;;;;;;;6245164;23;20168;-89
2022/07/09 14:50:37;;;;;;;2.63;1.92;;;;;;;;;;6246833;23;20172;-89
2022/07/09 14:53:05;;;;;;;1.85;1.60;;;;;;;;;;6244952;23;20172;-90
2022/07/09 14:55:35;;;;;;;2.60;1.63;;;;;;;;;;6244796;22;20189;-89
2022/07/09 14:58:02;;;;;;;2.20;1.63;;;;;;;;;;6245400;23;20173;-90
2022/07/09 15:00:30;;;;;;;1.60;1.50;;;;;;;;;;6244864;23;20173;-89
2022/07/09 15:02:59;;;;;;;1.92;1.50;;;;;;;;;;6245297;23;20226;-88
2022/07/09 15:05:30;;;;;;;1.70;1.60;;;;;;;;;;6245773;22;20203;-89
2022/07/09 15:07:59;;;;;;;1.65;1.55;;;;;;;;;;6245081;23;20218;-88
2022/07/09 15:10:27;;;;;;;2.35;1.52;;;;;;;;;;6245468;23;20180;-90
2022/07/09 15:12:54;;;;;;;1.67;1.55;;;;;;;;;;6245055;23;20239;-88
2022/07/09 15:15:21;;;;;;;1.70;1.60;;;;;;;;;;6245076;22;20204;-88
2022/07/09 15:17:50;;;;;;;1.75;1.60;;;;;;;;;;6244981;23;20165;-90
2022/07/09 15:20:17;;;;;;;1.80;1.70;;;;;;;;;;6244808;23;20173;-89
2022/07/09 15:22:45;;;;;;;1.70;1.55;;;;;;;;;;6245053;23;20179;-90
2022/07/09 15:25:13;;;;;;;2.25;1.70;;;;;;;;;;6244751;22;20188;-90
2022/07/09 15:27:41;;;;;;;1.75;1.60;;;;;;;;;;6245597;23;20176;-89
2022/07/09 15:30:09;;;;;;;2.25;2.03;;;;;;;;;;6244932;23;20176;-90
2022/07/09 15:32:36;;;;;;;1.77;1.67;;;;;;;;;;6245054;23;20188;-88
2022/07/09 15:35:04;;;;;;;1.90;1.80;;;;;;;;;;6244877;22;20164;-88
2022/07/09 15:37:31;;;;;;;2.53;1.90;;;;;;;;;;6244582;23;20172;-89
2022/07/09 15:39:59;;;;;;;2.15;1.95;;;;;;;;;;6244616;23;20173;-89
2022/07/09 15:42:33;;;;;;;2.38;1.77;;;;;;;;;;6244476;23;20168;-90
2022/07/09 15:48:06;;;;;;;3.55;2.17;;;;;;;;;;6141181;23;20181;-89
2022/07/09 15:50:35;;;;;;;2.25;2.10;;;;;;;;;;6244619;23;20203;-89
2022/07/09 15:53:04;;;;;;;2.33;1.90;;;;;;;;;;6244421;23;20243;-89
2022/07/09 15:55:34;;;;;;;2.35;2.15;;;;;;;;;;6243673;22;20264;-88
2022/07/09 15:58:20;;;;;;;3.08;2.75;;;;;;;;;;6244098;23;20189;-91
2022/07/09 16:01:00;;;;;;;2.00;1.80;;;;;;;;;;6244362;23;20612;-91
2022/07/09 16:03:29;;;;;;;1.90;1.80;;;;;;;;;;6244509;23;20246;-90
2022/07/09 16:06:08;;;;;;;1.90;1.80;;;;;;;;;;6244115;22;20197;-89
2022/07/09 16:08:35;;;;;;;1.77;1.67;;;;;;;;;;6243661;23;20169;-90
2022/07/09 16:14:00;;;;;;;1.83;1.73;;;;;;;;;;6243934;23;20180;-92
2022/07/09 16:16:30;;;;;;;1.73;1.63;;;;;;;;;;6244192;22;20257;-88
2022/07/09 16:19:35;;;;;;;2.03;1.83;;;;;;;;;;6243175;23;20176;-88
2022/07/09 16:22:10;;;;;;;2.80;2.10;;;;;;;;;;6224114;23;20179;-89
2022/07/09 16:25:18;;;;;;;;;;;;;;;;;;;;;
2022/07/09 16:33:23;;;;;;;2.10;1.90;;;;;;;;;;6244374;23;20207;-90
2022/07/09 16:35:53;;;;;;;2.20;2.10;;;;;;;;;;6245705;22;20188;-90
2022/07/09 16:38:21;;;;;;;2.47;1.95;;;;;;;;;;6245973;23;20226;-89
2022/07/09 16:40:56;;;;;;;2.17;1.98;;;;;;;;;;6245922;23;20179;-89
2022/07/09 16:43:34;;;;;;;1.80;1.67;;;;;;;;;;6246413;23;20230;-90
2022/07/09 16:46:12;;;;;;;2.53;2.33;;;;;;;;;;6245790;22;20200;-92
2022/07/09 16:48:51;;;;;;;3.95;2.70;;;;;;;;;;6246144;23;20234;-90
2022/07/09 16:51:29;;;;;;;2.30;2.20;;;;;;;;;;6246875;23;20187;-89
2022/07/09 16:54:08;;;;;;;2.72;2.00;;;;;;;;;;6244644;23;20243;-90
2022/07/09 16:56:39;;;;;;;1.95;1.85;;;;;;;;;;6244796;22;20211;-90
2022/07/09 16:59:15;;;;;;;2.90;2.00;;;;;;;;;;6245324;23;20179;-90
2022/07/09 17:01:44;;;;;;;2.80;1.80;;;;;;;;;;6245565;23;20200;-90
2022/07/09 17:04:16;;;;;;;2.22;1.60;;;;;;;;;;6245241;23;20230;-90
2022/07/09 17:06:43;;;;;;;2.10;1.90;;;;;;;;;;6245811;22;20184;-89
2022/07/09 17:09:13;;;;;;;1.85;1.75;;;;;;;;;;6245411;23;20239;-90
2022/07/09 17:11:43;;;;;;;3.03;2.05;;;;;;;;;;6246212;23;20172;-89
2022/07/09 17:14:11;;;;;;;2.95;2.42;;;;;;;;;;6245972;23;20260;-90
2022/07/09 17:16:45;;;;;;;2.95;2.30;;;;;;;;;;6243327;22;20204;-90
2022/07/09 17:19:41;;;;;;;2.30;2.10;;;;;;;;;;6244950;23;20168;-92
2022/07/09 17:22:17;;;;;;;3.38;1.88;;;;;;;;;;6245847;23;20176;-91
2022/07/09 17:24:53;;;;;;;3.05;1.80;;;;;;;;;;6245142;23;20211;-91
2022/07/09 17:27:25;;;;;;;2.20;1.70;;;;;;;;;;6245025;23;20227;-90
2022/07/09 17:29:54;;;;;;;2.22;2.03;;;;;;;;;;6245843;23;20169;-91
2022/07/09 17:35:28;;;;;;;1.83;1.73;;;;;;;;;;6229634;22;20172;-90
2022/07/09 17:38:17;;;;;;;2.65;1.80;;;;;;;;;;6237079;23;20168;-91
2022/07/09 17:40:57;;;;;;;1.98;1.88;;;;;;;;;;6245286;23;20161;-89
2022/07/09 17:43:41;;;;;;;1.88;1.77;;;;;;;;;;6245166;23;20237;-90
2022/07/09 17:46:09;;;;;;;1.90;1.80;;;;;;;;;;6245067;22;20250;-90
2022/07/09 17:48:40;;;;;;;2.13;1.95;;;;;;;;;;6245545;23;20173;-89
2022/07/09 17:51:15;;;;;;;2.10;1.83;;;;;;;;;;6244892;23;20168;-90
2022/07/09 17:53:59;;;;;;;1.80;1.70;;;;;;;;;;6245047;23;20183;-90
2022/07/09 17:56:36;;;;;;;1.85;1.75;;;;;;;;;;6244904;22;20212;-90
2022/07/09 18:01:57;;;;;;;2.17;2.00;;;;;;;;;;6237549;23;20168;-90
2022/07/09 18:07:33;;;;;;;1.80;1.70;;;;;;;;;;6244576;23;20240;-90
2022/07/09 18:10:10;;;;;;;;;;;;;;;;;;;;;
2022/07/09 18:12:51;;;;;;;1.95;1.80;;;;;;;;;;6244929;23;20157;-90
2022/07/09 18:18:42;;;;;;;1.85;1.73;;;;;;;;;;6244146;23;20248;-90
2022/07/09 18:21:19;;;;;;;2.10;2.00;;;;;;;;;;6246685;23;20252;-91
2022/07/09 18:26:50;;;;;;;2.15;2.00;;;;;;;;;;6245010;22;20204;-91
2022/07/09 18:29:24;;;;;;;2.25;2.05;;;;;;;;;;6245141;23;20195;-90
2022/07/09 18:44:14;;;;;;;2.35;1.80;;;;;;;;;;6207882;23;20168;-91
2022/07/09 18:47:28;;;;;;;2.83;1.95;;;;;;;;;;6239487;22;20192;-90
2022/07/09 18:56:37;;;;;;;2.38;2.15;;;;;;;;;;6040218;23;20207;-89
2022/07/09 18:59:15;;;;;;;2.25;2.05;;;;;;;;;;6093469;23;20175;-90
2022/07/09 19:01:54;;;;;;;2.88;1.90;;;;;;;;;;6093467;23;20179;-91
2022/07/09 19:04:32;;;;;;;2.72;2.00;;;;;;;;;;6093845;23;20198;-89
2022/07/09 19:07:09;;;;;;;2.80;2.40;;;;;;;;;;6215517;22;20204;-90
2022/07/09 19:12:58;;;;;;;2.90;2.58;;;;;;;;;;6121938;23;20217;-89
2022/07/09 19:15:28;;;;;;;3.00;2.65;;;;;;;;;;6121825;23;20275;-88
2022/07/09 19:24:13;;;;;;;2.42;2.22;;;;;;;;;;6093302;23;20151;-88
2022/07/09 19:29:31;;;;;;;3.67;2.50;;;;;;;;;;6091969;23;20295;-89
2022/07/09 19:37:42;;;;;;;2.40;2.20;;;;;;;;;;6093588;23;20178;-89
2022/07/09 19:43:37;;;;;;;2.20;2.10;;;;;;;;;;6006817;23;20182;-89
2022/07/09 21:21:55;;;;;;;5.85;3.35;;;;;;;;;;6152555;23;20166;-89
